Time;durP1;ratioP1;P1;durP2;ratioP2;P2;SDS_P1;SDS_P2;PMS_P1;PMS_P2;Temp;Humidity;BMP_temperature;BMP_pressure;BME280_temperature;BME280_humidity;BME280_pressure;Samples;Min_cycle;Max_cycle;Signal;HPM_P1;HPM_P2
2023/12/30 00:00:04;;;;;;;9.80;6.30;;;;;;;2.52;92.79;99316.08;79415;1300;3011536;-73
2023/12/30 00:02:33;;;;;;;11.30;6.80;;;;;;;2.60;91.83;99320.31;78237;1300;3050174;-76
2023/12/30 00:05:00;;;;;;;13.70;7.20;;;;;;;2.40;92.17;99320.41;79556;1300;3018485;-72
2023/12/30 00:07:28;;;;;;;10.60;7.70;;;;;;;2.19;92.37;99321.00;79513;1296;3012660;-72
2023/12/30 00:09:56;;;;;;;12.80;7.80;;;;;;;1.91;93.60;99320.93;78237;1300;3050875;-72
2023/12/30 00:12:22;;;;;;;14.30;6.90;;;;;;;1.85;94.60;99321.79;79487;1298;3013568;-73
2023/12/30 00:14:49;;;;;;;12.30;7.90;;;;;;;2.31;94.01;99319.44;79498;1300;3011705;-70
2023/12/30 00:17:17;;;;;;;13.40;8.00;;;;;;;2.50;92.29;99327.53;78213;1299;3025997;-72
2023/12/30 00:19:45;;;;;;;12.30;7.20;;;;;;;2.25;92.08;99325.67;79507;1301;3013247;-74
2023/12/30 00:22:12;;;;;;;12.60;7.80;;;;;;;2.16;92.66;99327.31;79405;1298;3012055;-74
2023/12/30 00:24:43;;;;;;;11.50;7.40;;;;;;;1.76;93.60;99324.61;78191;1300;3050600;-74
2023/12/30 00:27:11;;;;;;;8.20;5.00;;;;;;;1.71;94.13;99330.27;79339;1300;3011535;-73
2023/12/30 00:29:50;;;;;;;12.40;7.10;;;;;;;2.04;93.61;99335.95;78246;1300;3047969;-74
2023/12/30 00:32:18;;;;;;;11.40;7.60;;;;;;;1.82;93.53;99329.81;79358;1296;3012751;-75
2023/12/30 00:34:46;;;;;;;10.80;6.70;;;;;;;2.04;93.58;99336.80;78255;1298;3049683;-74
2023/12/30 00:37:18;;;;;;;11.50;7.50;;;;;;;1.97;93.21;99329.23;79548;1298;3012954;-74
2023/12/30 00:39:49;;;;;;;11.80;7.30;;;;;;;1.55;94.60;99329.83;78271;1298;3068814;-73
2023/12/30 00:42:16;;;;;;;10.40;6.60;;;;;;;1.38;96.11;99335.77;79424;1298;3013089;-75
2023/12/30 00:44:46;;;;;;;9.40;6.40;;;;;;;1.41;96.78;99333.96;79445;1298;3011875;-74
2023/12/30 00:47:14;;;;;;;11.20;6.50;;;;;;;1.90;95.79;99330.44;78194;1298;3052716;-72
2023/12/30 00:49:42;;;;;;;9.50;6.60;;;;;;;2.05;93.30;99329.18;79446;1300;3012940;-74
2023/12/30 00:52:08;;;;;;;12.70;7.90;;;;;;;1.56;94.20;99325.82;79620;1300;3012811;-76
2023/12/30 00:54:36;;;;;;;12.80;7.80;;;;;;;1.58;95.39;99325.44;78144;1301;3069634;-76
2023/12/30 00:57:03;;;;;;;12.20;7.90;;;;;;;1.36;95.86;99324.09;79687;1300;3013748;-75
2023/12/30 00:59:34;;;;;;;14.60;7.20;;;;;;;1.43;95.96;99317.17;79400;1297;3011518;-75
2023/12/30 01:02:02;;;;;;;11.50;6.50;;;;;;;1.76;96.32;99314.08;78327;1296;3054431;-75
2023/12/30 01:04:30;;;;;;;10.20;5.20;;;;;;;2.07;94.35;99319.80;79513;1300;3012959;-75
2023/12/30 01:06:57;;;;;;;9.40;6.10;;;;;;;2.30;92.51;99319.66;79510;1300;3011656;-76
2023/12/30 01:09:25;;;;;;;8.80;5.90;;;;;;;1.85;93.19;99322.98;78209;1299;3070796;-75
2023/12/30 01:11:52;;;;;;;12.30;6.80;;;;;;;1.87;93.76;99319.14;79441;1300;3014275;-73
2023/12/30 01:14:18;;;;;;;9.40;5.40;;;;;;;1.78;94.02;99316.61;79499;1299;3014113;-75
2023/12/30 01:16:46;;;;;;;12.30;6.60;;;;;;;2.06;93.74;99313.08;78198;1300;3025163;-75
2023/12/30 01:19:13;;;;;;;13.00;7.20;;;;;;;2.33;92.73;99306.60;79588;1300;3013297;-75
2023/12/30 01:21:40;;;;;;;8.40;5.40;;;;;;;2.40;92.48;99320.05;79487;1301;3014150;-73
2023/12/30 01:24:10;;;;;;;12.70;7.70;;;;;;;2.37;92.19;99313.75;78261;1299;3027506;-75
2023/12/30 01:26:38;;;;;;;12.10;6.50;;;;;;;2.28;92.37;99319.87;79514;1297;3016191;-73
2023/12/30 01:29:07;;;;;;;13.00;6.40;;;;;;;1.92;93.30;99315.38;78934;1298;3011574;-75
2023/12/30 01:31:34;;;;;;;14.40;7.40;;;;;;;2.16;94.30;99306.23;79498;1299;3015746;-75
2023/12/30 01:34:01;;;;;;;10.70;6.80;;;;;;;2.72;92.02;99305.23;79470;1296;3013249;-76
2023/12/30 01:36:30;;;;;;;10.10;6.00;;;;;;;2.97;90.13;99300.34;78225;1300;3054035;-74
2023/12/30 01:38:57;;;;;;;11.10;7.20;;;;;;;2.87;89.53;99304.11;79463;1298;3018403;-77
2023/12/30 01:41:24;;;;;;;8.10;5.10;;;;;;;2.57;89.78;99307.27;79445;1301;3013316;-75
2023/12/30 01:43:52;;;;;;;10.90;6.80;;;;;;;2.46;89.98;99307.63;78259;1298;3026320;-75
2023/12/30 01:46:18;;;;;;;10.10;6.00;;;;;;;2.47;90.90;99304.79;79411;1298;3012926;-73
2023/12/30 01:48:47;;;;;;;14.30;6.90;;;;;;;3.07;89.31;99307.10;79467;1300;3011601;-74
2023/12/30 01:51:15;;;;;;;12.40;6.50;;;;;;;3.12;88.49;99299.86;78228;1300;3053735;-73
2023/12/30 01:53:41;;;;;;;7.30;5.20;;;;;;;2.92;88.96;99305.69;79443;1300;3013437;-76
2023/12/30 01:56:08;;;;;;;13.30;6.10;;;;;;;2.77;89.94;99289.55;79257;1303;3011901;-75
2023/12/30 01:58:37;;;;;;;7.40;4.70;;;;;;;2.66;90.65;99301.65;78310;1301;3056435;-75
2023/12/30 02:01:05;;;;;;;11.20;6.10;;;;;;;3.15;90.01;99295.42;79463;1297;3015913;-76
2023/12/30 02:03:33;;;;;;;9.50;4.80;;;;;;;3.45;88.33;99301.86;79605;1300;3011678;-75
2023/12/30 02:06:02;;;;;;;9.90;5.50;;;;;;;3.51;87.23;99296.46;78339;1300;3052811;-75
2023/12/30 02:08:30;;;;;;;12.70;7.00;;;;;;;3.25;86.98;99301.67;79438;1302;3013135;-76
2023/12/30 02:10:57;;;;;;;9.80;6.20;;;;;;;2.88;88.19;99296.64;79585;1298;3011758;-74
2023/12/30 02:13:26;;;;;;;15.00;7.50;;;;;;;2.62;89.53;99306.10;78184;1298;3055959;-72
2023/12/30 02:15:55;;;;;;;12.50;7.20;;;;;;;2.80;89.76;99300.86;79476;1297;3013579;-76
2023/12/30 02:18:24;;;;;;;10.30;6.50;;;;;;;3.39;88.03;99297.03;79023;1300;3013505;-73
2023/12/30 02:20:52;;;;;;;13.80;7.50;;;;;;;3.48;86.70;99295.70;79650;1297;3013058;-77
2023/12/30 02:23:19;;;;;;;13.10;7.50;;;;;;;3.19;87.10;99297.19;79507;1298;3011543;-76
2023/12/30 02:25:49;;;;;;;12.30;7.70;;;;;;;3.11;87.54;99295.38;78168;1301;3068807;-76
2023/12/30 02:28:15;;;;;;;15.20;8.40;;;;;;;2.81;88.19;99295.30;79447;1297;3012854;-75
2023/12/30 02:30:42;;;;;;;11.00;7.10;;;;;;;2.59;89.72;99302.20;79517;1297;3011511;-77
2023/12/30 02:33:10;;;;;;;10.20;5.90;;;;;;;3.54;87.87;99297.92;78372;1297;3026235;-74
2023/12/30 02:35:36;;;;;;;10.80;7.20;;;;;;;3.67;85.99;99293.64;79423;1298;3018583;-77
2023/12/30 02:38:03;;;;;;;14.80;8.30;;;;;;;3.35;86.62;99297.87;79607;1300;3011591;-77
2023/12/30 02:40:31;;;;;;;14.10;8.20;;;;;;;3.13;87.00;99298.59;78265;1300;3026516;-74
2023/12/30 02:42:59;;;;;;;14.60;8.80;;;;;;;3.00;87.63;99305.56;79707;1298;3013007;-76
2023/12/30 02:45:26;;;;;;;14.10;7.30;;;;;;;2.85;87.86;99308.33;79550;1296;3013977;-73
2023/12/30 02:47:54;;;;;;;15.70;7.50;;;;;;;2.80;88.59;99310.88;78122;1300;3052715;-75
2023/12/30 02:50:20;;;;;;;19.10;9.80;;;;;;;3.38;87.77;99306.59;79423;1300;3013308;-76
2023/12/30 02:52:47;;;;;;;23.30;11.00;;;;;;;3.45;86.98;99304.80;79515;1300;3011475;-75
2023/12/30 02:55:15;;;;;;;36.10;13.30;;;;;;;3.41;86.62;99299.24;78322;1300;3027653;-73
2023/12/30 02:57:42;;;;;;;36.70;14.60;;;;;;;3.03;86.71;99298.56;79423;1300;3012930;-77
2023/12/30 03:00:10;;;;;;;30.70;12.50;;;;;;;2.65;88.44;99303.59;79469;1298;3011406;-78
2023/12/30 03:02:38;;;;;;;27.40;11.20;;;;;;;2.50;88.62;99307.84;78260;1298;3051104;-74
2023/12/30 03:05:06;;;;;;;15.50;8.50;;;;;;;2.07;90.28;99307.88;79384;1300;3013182;-74
2023/12/30 03:07:36;;;;;;;16.10;8.20;;;;;;;2.34;89.86;99304.51;79397;1301;3012802;-77
2023/12/30 03:10:04;;;;;;;23.70;10.80;;;;;;;2.79;88.22;99303.30;78162;1296;3070132;-75
2023/12/30 03:12:31;;;;;;;22.70;9.60;;;;;;;2.62;87.95;99313.00;79696;1299;3013889;-71
2023/12/30 03:14:58;;;;;;;18.70;9.10;;;;;;;2.77;87.38;99309.27;79417;1296;3011626;-77
2023/12/30 03:17:26;;;;;;;13.80;8.20;;;;;;;2.45;88.08;99309.89;78255;1302;3053586;-75
2023/12/30 03:19:53;;;;;;;15.30;7.50;;;;;;;2.46;87.86;99316.23;79408;1301;3013254;-77
2023/12/30 03:22:19;;;;;;;15.20;9.10;;;;;;;2.12;88.81;99311.70;79349;1301;3011869;-77
2023/12/30 03:24:49;;;;;;;15.60;8.10;;;;;;;1.77;90.72;99312.84;78447;1296;3067855;-75
2023/12/30 03:27:15;;;;;;;13.70;7.90;;;;;;;1.80;91.80;99312.77;79489;1300;3013363;-74
2023/12/30 03:29:43;;;;;;;16.30;8.90;;;;;;;2.33;90.71;99311.79;79495;1301;3013595;-76
2023/12/30 03:32:11;;;;;;;14.90;8.10;;;;;;;2.48;89.45;99314.82;78336;1296;3053325;-71
2023/12/30 03:34:39;;;;;;;12.70;7.40;;;;;;;2.47;89.29;99315.36;79381;1300;3013316;-76
2023/12/30 03:37:05;;;;;;;10.70;6.50;;;;;;;2.54;88.24;99322.24;79451;1300;3013604;-73
2023/12/30 03:39:34;;;;;;;13.30;8.30;;;;;;;2.21;89.02;99322.34;78138;1301;3068949;-75
2023/12/30 03:42:01;;;;;;;11.10;7.60;;;;;;;1.90;91.06;99329.42;79595;1296;3013544;-74
2023/12/30 03:44:29;;;;;;;13.30;7.90;;;;;;;2.06;91.61;99327.42;79374;1301;3011802;-76
2023/12/30 03:46:58;;;;;;;11.20;6.80;;;;;;;2.77;89.94;99324.14;78184;1300;3053917;-77
2023/12/30 03:49:25;;;;;;;13.40;6.10;;;;;;;2.96;88.26;99324.75;79469;1301;3012635;-73
2023/12/30 03:51:53;;;;;;;11.60;7.80;;;;;;;2.90;87.66;99322.87;79513;1300;3011503;-73
2023/12/30 03:54:21;;;;;;;14.20;8.30;;;;;;;2.78;88.26;99334.48;78625;1297;3068726;-74
2023/12/30 03:56:48;;;;;;;11.30;7.10;;;;;;;2.44;89.28;99329.96;79485;1298;3012668;-77
2023/12/30 03:59:15;;;;;;;15.20;9.00;;;;;;;2.45;89.62;99332.35;79521;1301;3011878;-73
2023/12/30 04:01:44;;;;;;;9.00;5.70;;;;;;;2.49;90.56;99330.34;78203;1296;3027315;-75
2023/12/30 04:04:10;;;;;;;10.50;6.10;;;;;;;3.58;87.51;99326.38;79499;1300;3019339;-72
2023/12/30 04:06:37;;;;;;;16.40;9.40;;;;;;;3.47;85.68;99327.77;79383;1300;3013086;-68
2023/12/30 04:09:05;;;;;;;18.00;8.40;;;;;;;3.08;86.63;99339.09;78303;1298;3027164;-73
2023/12/30 04:11:32;;;;;;;20.70;10.70;;;;;;;3.00;86.92;99342.45;79540;1294;3013116;-67
2023/12/30 04:13:59;;;;;;;23.50;10.90;;;;;;;2.69;88.17;99342.37;79579;1296;3012252;-74
2023/12/30 04:16:27;;;;;;;19.30;10.10;;;;;;;2.72;88.26;99341.93;78307;1298;3028850;-72
2023/12/30 04:18:53;;;;;;;15.40;8.10;;;;;;;3.05;89.16;99336.92;79489;1300;3013713;-70
2023/12/30 04:21:20;;;;;;;16.60;8.90;;;;;;;3.36;86.88;99336.46;79430;1301;3012971;-72
2023/12/30 04:23:48;;;;;;;14.80;8.10;;;;;;;3.28;86.92;99333.77;78331;1300;3026400;-73
2023/12/30 04:26:15;;;;;;;17.80;9.50;;;;;;;3.10;86.69;99336.23;79519;1300;3013184;-71
2023/12/30 04:28:42;;;;;;;20.20;9.20;;;;;;;2.84;88.19;99341.05;79502;1300;3011727;-69
2023/12/30 04:31:11;;;;;;;15.40;8.30;;;;;;;2.76;88.28;99343.72;78292;1295;3028904;-69
2023/12/30 04:33:37;;;;;;;20.20;9.80;;;;;;;2.59;89.07;99342.13;79643;1299;3011577;-75
2023/12/30 04:36:04;;;;;;;16.60;7.70;;;;;;;3.12;88.81;99342.08;79553;1301;3011586;-70
2023/12/30 04:38:32;;;;;;;15.70;8.30;;;;;;;3.56;86.68;99343.22;78284;1298;3069104;-72
2023/12/30 04:40:59;;;;;;;18.50;9.40;;;;;;;3.43;86.34;99352.17;79419;1300;3013048;-71
2023/12/30 04:43:26;;;;;;;23.20;10.40;;;;;;;3.18;87.35;99356.40;79429;1299;3012922;-75
2023/12/30 04:45:54;;;;;;;23.00;11.70;;;;;;;3.13;87.31;99354.67;78248;1297;3026700;-71
2023/12/30 04:48:20;;;;;;;22.30;12.00;;;;;;;2.73;88.19;99358.84;79520;1300;3021120;-68
2023/12/30 04:50:47;;;;;;;12.80;7.30;;;;;;;2.55;89.44;99355.07;79567;1298;3011611;-72
2023/12/30 04:53:15;;;;;;;13.90;8.00;;;;;;;3.00;89.68;99365.95;78308;1298;3026459;-73
2023/12/30 04:55:42;;;;;;;14.20;7.70;;;;;;;3.62;86.63;99357.06;79486;1300;3012944;-71
2023/12/30 04:58:08;;;;;;;18.20;9.10;;;;;;;3.83;85.14;99363.45;79481;1295;3011549;-76
2023/12/30 05:00:38;;;;;;;16.50;9.20;;;;;;;3.68;84.43;99355.31;78256;1300;3025916;-75
2023/12/30 05:03:06;;;;;;;14.60;7.40;;;;;;;3.25;85.37;99359.15;79590;1298;3013463;-76
2023/12/30 05:05:32;;;;;;;12.60;7.60;;;;;;;2.94;87.38;99361.87;79624;1298;3013286;-73
2023/12/30 05:08:01;;;;;;;14.60;8.10;;;;;;;2.77;88.97;99359.93;78508;1294;3066880;-76
2023/12/30 05:10:31;;;;;;;15.70;8.40;;;;;;;2.89;89.58;99356.27;79679;1296;3014730;-75
2023/12/30 05:13:03;;;;;;;13.90;8.20;;;;;;;3.90;86.92;99353.14;78238;1296;3049000;-71
2023/12/30 05:15:30;;;;;;;14.70;9.30;;;;;;;4.11;84.50;99349.63;79524;1298;3013295;-75
2023/12/30 05:17:58;;;;;;;17.90;8.70;;;;;;;3.82;84.65;99352.38;78274;1305;3025890;-71
2023/12/30 05:20:24;;;;;;;17.30;10.60;;;;;;;3.60;84.89;99351.95;79578;1297;3015058;-74
2023/12/30 05:22:51;;;;;;;16.90;9.70;;;;;;;3.35;85.61;99353.79;79684;1298;3011658;-72
2023/12/30 05:25:19;;;;;;;18.60;10.60;;;;;;;3.18;86.09;99351.41;78360;1298;3025790;-74
2023/12/30 05:27:46;;;;;;;15.60;9.10;;;;;;;2.96;86.85;99359.51;79797;1301;3012967;-74
2023/12/30 05:30:12;;;;;;;17.50;10.20;;;;;;;3.48;86.61;99356.30;79439;1300;3011560;-72
2023/12/30 05:32:41;;;;;;;17.20;10.20;;;;;;;3.75;85.00;99357.85;78430;1300;3025784;-70
2023/12/30 05:35:07;;;;;;;20.00;11.10;;;;;;;3.91;84.23;99355.55;79536;1301;3013313;-72
2023/12/30 05:37:34;;;;;;;22.10;12.10;;;;;;;3.70;83.90;99356.45;79615;1298;3011198;-72
2023/12/30 05:40:06;;;;;;;23.70;11.90;;;;;;;3.14;85.60;99360.35;78359;1300;3026003;-75
2023/12/30 05:42:32;;;;;;;25.70;13.70;;;;;;;2.98;86.52;99363.79;79658;1298;3012318;-74
2023/12/30 05:45:00;;;;;;;26.30;13.90;;;;;;;3.09;86.03;99360.35;78344;1298;3025872;-74
2023/12/30 05:47:27;;;;;;;25.50;12.70;;;;;;;3.47;86.19;99360.83;79616;1298;3013457;-73
2023/12/30 05:49:54;;;;;;;20.90;11.80;;;;;;;3.89;84.83;99364.11;79943;1295;3011691;-71
2023/12/30 05:52:22;;;;;;;19.30;12.00;;;;;;;4.09;83.63;99364.80;78361;1297;3027188;-75
2023/12/30 05:54:50;;;;;;;20.20;11.20;;;;;;;3.89;83.57;99363.74;79684;1297;3013055;-75
2023/12/30 05:57:17;;;;;;;21.10;13.20;;;;;;;3.61;84.06;99368.34;79691;1298;3011643;-75
2023/12/30 05:59:46;;;;;;;24.80;12.60;;;;;;;3.42;84.50;99368.97;78503;1297;3048140;-77
2023/12/30 06:02:14;;;;;;;23.90;12.70;;;;;;;3.16;85.53;99367.91;79649;1298;3013149;-74
2023/12/30 06:04:41;;;;;;;21.00;11.70;;;;;;;2.97;86.62;99377.31;79557;1298;3011328;-76
2023/12/30 06:07:09;;;;;;;21.30;11.60;;;;;;;3.53;86.15;99375.88;78397;1308;3051266;-74
2023/12/30 06:09:36;;;;;;;13.90;9.60;;;;;;;3.47;85.90;99370.02;79653;1294;3013139;-77
2023/12/30 06:12:02;;;;;;;16.10;9.60;;;;;;;3.67;85.00;99380.12;79776;1298;3011984;-74
2023/12/30 06:14:30;;;;;;;19.70;9.90;;;;;;;3.37;85.62;99379.36;78405;1301;3027705;-74
2023/12/30 06:16:58;;;;;;;19.80;11.10;;;;;;;3.23;86.39;99380.48;79791;1307;3013646;-76
2023/12/30 06:19:24;;;;;;;20.00;12.20;;;;;;;3.17;86.42;99386.04;79744;1295;3011827;-74
2023/12/30 06:21:52;;;;;;;20.50;10.60;;;;;;;2.94;87.10;99384.70;78472;1298;3025819;-74
2023/12/30 06:24:19;;;;;;;18.50;10.70;;;;;;;2.76;88.28;99390.08;79725;1296;3013792;-76
2023/12/30 06:26:45;;;;;;;19.90;11.30;;;;;;;3.26;88.32;99381.42;79644;1295;3011904;-75
2023/12/30 06:29:15;;;;;;;22.10;13.20;;;;;;;3.63;85.77;99376.77;78383;1298;3049524;-74
2023/12/30 06:31:42;;;;;;;38.20;17.70;;;;;;;3.66;85.46;99375.79;79728;1298;3015604;-75
2023/12/30 06:34:11;;;;;;;34.40;17.80;;;;;;;3.74;85.25;99381.43;79565;1304;3012207;-75
2023/12/30 06:36:41;;;;;;;48.40;19.60;;;;;;;3.35;86.18;99388.61;78440;1294;3052406;-76
2023/12/30 06:39:08;;;;;;;203.10;49.40;;;;;;;3.16;86.91;99394.91;79497;1298;3011562;-73
2023/12/30 06:41:35;;;;;;;244.60;45.20;;;;;;;3.11;86.76;99392.48;79541;1299;3011342;-72
2023/12/30 06:44:03;;;;;;;178.60;33.40;;;;;;;3.14;86.59;99394.97;78483;1297;3050262;-74
2023/12/30 06:46:30;;;;;;;179.70;29.80;;;;;;;3.68;86.20;99391.49;79442;1295;3012923;-75
2023/12/30 06:48:56;;;;;;;310.60;51.30;;;;;;;4.39;83.69;99393.01;79540;1295;3011903;-74
2023/12/30 06:51:24;;;;;;;120.40;29.50;;;;;;;4.41;81.85;99391.38;78269;1308;3026343;-74
2023/12/30 06:53:51;;;;;;;76.90;24.50;;;;;;;4.05;82.36;99392.84;79478;1300;3015558;-72
2023/12/30 06:56:18;;;;;;;49.10;20.50;;;;;;;3.75;83.23;99394.02;79599;1297;3011707;-74
2023/12/30 06:58:46;;;;;;;32.80;18.20;;;;;;;3.39;84.18;99397.11;78464;1295;3048685;-70
2023/12/30 07:01:13;;;;;;;23.80;13.60;;;;;;;2.97;85.93;99405.19;79752;1296;3013295;-76
2023/12/30 07:03:41;;;;;;;26.50;13.40;;;;;;;2.79;87.10;99404.34;79592;1295;3011884;-74
2023/12/30 07:06:09;;;;;;;23.90;12.90;;;;;;;2.52;88.85;99403.57;78273;1299;3052090;-74
2023/12/30 07:08:36;;;;;;;22.20;11.20;;;;;;;2.47;89.44;99405.62;79446;1298;3019205;-75
2023/12/30 07:11:02;;;;;;;20.40;11.60;;;;;;;2.99;88.90;99406.14;79540;1296;3011670;-76
2023/12/30 07:13:30;;;;;;;18.60;10.80;;;;;;;3.13;86.88;99404.52;78259;1295;3026508;-75
2023/12/30 07:15:57;;;;;;;23.10;11.70;;;;;;;3.15;86.72;99405.34;79583;1295;3015647;-75
2023/12/30 07:18:25;;;;;;;22.30;11.90;;;;;;;2.87;87.10;99410.14;79619;1297;3011904;-74
2023/12/30 07:20:53;;;;;;;17.00;11.10;;;;;;;2.61;88.24;99408.16;78411;1298;3053292;-76
2023/12/30 07:23:19;;;;;;;19.10;11.20;;;;;;;2.57;88.81;99401.88;79663;1294;3013595;-73
2023/12/30 07:25:51;;;;;;;20.20;12.20;;;;;;;2.39;89.81;99401.52;79601;1298;3012881;-78
2023/12/30 07:28:19;;;;;;;18.80;11.30;;;;;;;2.28;90.80;99397.84;78440;1295;3049737;-74
2023/12/30 07:30:45;;;;;;;16.40;10.10;;;;;;;2.18;91.55;99405.20;79632;1298;3013011;-73
2023/12/30 07:33:12;;;;;;;16.60;10.40;;;;;;;2.46;90.93;99411.34;79639;1298;3011645;-73
2023/12/30 07:35:40;;;;;;;21.30;11.20;;;;;;;2.87;89.42;99407.73;78373;1301;3025742;-75
2023/12/30 07:38:07;;;;;;;21.60;11.50;;;;;;;3.09;88.08;99409.86;79589;1295;3016244;-77
2023/12/30 07:40:34;;;;;;;33.20;14.90;;;;;;;3.03;87.88;99410.20;79510;1297;3011681;-74
2023/12/30 07:43:02;;;;;;;46.20;16.70;;;;;;;2.59;88.87;99413.20;78348;1308;3026459;-74
2023/12/30 07:45:28;;;;;;;61.70;17.30;;;;;;;2.46;90.25;99414.80;79656;1295;3012964;-71
2023/12/30 07:47:56;;;;;;;81.80;22.80;;;;;;;2.49;90.30;99414.37;79471;1301;3013820;-71
2023/12/30 07:50:24;;;;;;;31.20;14.30;;;;;;;2.27;91.04;99421.38;78367;1295;3052512;-74
2023/12/30 07:52:51;;;;;;;22.90;11.20;;;;;;;2.26;91.79;99418.80;79557;1295;3013003;-73
2023/12/30 07:55:18;;;;;;;27.30;15.70;;;;;;;2.85;90.23;99424.56;79575;1298;3011767;-73
2023/12/30 07:57:46;;;;;;;22.70;13.00;;;;;;;3.27;88.06;99424.34;78578;1295;3025899;-76
2023/12/30 08:00:13;;;;;;;23.20;13.70;;;;;;;3.15;87.57;99425.75;79691;1300;3018707;-73
2023/12/30 08:02:41;;;;;;;22.40;11.50;;;;;;;3.18;87.38;99425.85;79667;1294;3013070;-73
2023/12/30 08:05:08;;;;;;;17.80;11.20;;;;;;;2.87;88.27;99426.77;78320;1298;3052204;-73
2023/12/30 08:07:35;;;;;;;21.90;11.90;;;;;;;2.71;89.46;99428.10;79537;1301;3013582;-73
2023/12/30 08:10:02;;;;;;;20.00;12.60;;;;;;;2.66;89.53;99435.50;79622;1294;3012924;-75
2023/12/30 08:12:31;;;;;;;24.70;12.80;;;;;;;2.41;90.60;99427.73;78327;1298;3026885;-77
2023/12/30 08:14:59;;;;;;;18.20;11.10;;;;;;;2.50;91.02;99427.65;79727;1300;3014045;-77
2023/12/30 08:17:28;;;;;;;24.70;11.40;;;;;;;3.03;90.58;99421.42;79580;1295;3013826;-76
2023/12/30 08:19:57;;;;;;;22.90;11.70;;;;;;;3.55;87.55;99415.66;78340;1295;3052086;-77
2023/12/30 08:22:24;;;;;;;20.10;12.60;;;;;;;3.63;86.33;99411.59;79835;1295;3013121;-76
2023/12/30 08:24:51;;;;;;;22.20;12.10;;;;;;;3.56;86.24;99414.92;79443;1295;3012920;-72
2023/12/30 08:27:19;;;;;;;22.20;14.30;;;;;;;3.47;86.64;99412.80;78480;1295;3048471;-73
2023/12/30 08:29:45;;;;;;;22.40;13.50;;;;;;;3.27;87.20;99416.39;79679;1295;3014487;-73
2023/12/30 08:32:12;;;;;;;27.20;14.90;;;;;;;3.21;87.98;99413.78;79508;1295;3011866;-71
2023/12/30 08:34:40;;;;;;;27.10;15.50;;;;;;;3.05;89.10;99413.27;78439;1295;3025124;-72
2023/12/30 08:37:09;;;;;;;25.10;13.40;;;;;;;3.03;89.82;99414.86;79555;1300;3020357;-74
2023/12/30 08:39:37;;;;;;;94.30;30.20;;;;;;;3.74;88.39;99406.38;79731;1295;3011782;-73
2023/12/30 08:42:06;;;;;;;117.10;41.50;;;;;;;3.99;86.52;99406.08;78435;1295;3049497;-72
2023/12/30 08:44:35;;;;;;;31.00;15.80;;;;;;;4.12;85.47;99402.64;79611;1298;3018533;-71
2023/12/30 08:47:02;;;;;;;187.40;51.50;;;;;;;4.11;85.26;99399.39;79577;1299;3011859;-76
2023/12/30 08:49:31;;;;;;;50.30;20.40;;;;;;;3.91;85.92;99397.66;78475;1294;3053173;-74
2023/12/30 08:51:58;;;;;;;30.70;14.70;;;;;;;3.92;86.40;99397.44;79450;1300;3013049;-75
2023/12/30 08:54:25;;;;;;;108.70;22.70;;;;;;;4.13;86.01;99391.18;79553;1295;3011768;-73
2023/12/30 08:56:54;;;;;;;161.80;31.80;;;;;;;4.22;85.25;99386.00;78415;1295;3047584;-74
2023/12/30 08:59:22;;;;;;;38.00;13.10;;;;;;;4.15;85.14;99390.60;79917;1294;3013486;-76
2023/12/30 09:01:49;;;;;;;129.80;25.50;;;;;;;4.70;83.90;99395.86;79601;1295;3011956;-75
2023/12/30 09:04:17;;;;;;;55.60;20.20;;;;;;;5.12;82.08;99388.36;78409;1299;3052426;-77
2023/12/30 09:06:44;;;;;;;40.90;16.10;;;;;;;5.13;81.66;99385.90;79503;1300;3013572;-76
2023/12/30 09:09:11;;;;;;;26.30;15.60;;;;;;;5.22;81.15;99387.61;79481;1294;3011951;-73
2023/12/30 09:11:40;;;;;;;30.40;17.00;;;;;;;5.17;81.33;99387.48;78407;1294;3051522;-72
2023/12/30 09:14:06;;;;;;;35.20;17.60;;;;;;;5.23;81.59;99384.99;79735;1295;3013762;-75
2023/12/30 09:16:33;;;;;;;20.20;13.30;;;;;;;5.10;82.16;99388.27;79660;1300;3012211;-76
2023/12/30 09:19:01;;;;;;;23.00;12.50;;;;;;;5.19;81.77;99388.64;78445;1295;3027455;-73
2023/12/30 09:21:29;;;;;;;20.20;12.90;;;;;;;4.97;82.93;99382.34;79782;1298;3020587;-74
2023/12/30 09:23:56;;;;;;;19.00;11.90;;;;;;;4.99;83.07;99380.55;79585;1295;3011942;-73
2023/12/30 09:26:25;;;;;;;14.40;9.50;;;;;;;4.92;83.24;99382.20;78491;1299;3049311;-77
2023/12/30 09:28:52;;;;;;;17.50;10.00;;;;;;;5.39;82.01;99382.61;79740;1296;3013855;-73
2023/12/30 09:31:27;;;;;;;17.50;10.60;;;;;;;5.77;80.17;99370.42;79604;1295;3011636;-76
2023/12/30 09:33:55;;;;;;;17.00;10.40;;;;;;;6.05;79.01;99367.38;78349;1295;3053523;-75
2023/12/30 09:36:22;;;;;;;23.20;10.70;;;;;;;5.98;79.21;99369.76;79806;1295;3012910;-76
2023/12/30 09:38:49;;;;;;;20.10;11.40;;;;;;;5.90;79.47;99371.47;79512;1294;3011867;-75
2023/12/30 09:41:17;;;;;;;22.50;12.10;;;;;;;5.79;80.09;99369.31;78306;1294;3048778;-75
2023/12/30 09:43:44;;;;;;;19.60;11.30;;;;;;;5.75;81.14;99367.91;79642;1295;3013416;-75
2023/12/30 09:46:11;;;;;;;20.70;12.00;;;;;;;6.02;80.32;99361.24;80031;1301;3011877;-75
2023/12/30 09:48:39;;;;;;;23.40;12.50;;;;;;;6.14;80.12;99358.80;78721;1300;3026377;-74
2023/12/30 09:51:05;;;;;;;21.20;12.70;;;;;;;6.21;79.79;99357.98;79874;1295;3018923;-72
2023/12/30 09:53:32;;;;;;;19.80;11.60;;;;;;;6.30;79.64;99354.27;79790;1297;3011693;-77
2023/12/30 09:56:00;;;;;;;20.90;12.00;;;;;;;6.38;79.43;99353.76;78501;1295;3026822;-74
2023/12/30 09:58:27;;;;;;;20.70;9.60;;;;;;;6.51;79.42;99354.36;79539;1298;3013593;-73
2023/12/30 10:00:54;;;;;;;17.80;10.00;;;;;;;7.03;77.69;99354.05;79596;1300;3013407;-73
2023/12/30 10:03:23;;;;;;;14.90;9.80;;;;;;;7.50;75.37;99346.55;78338;1300;3052547;-73
2023/12/30 10:05:50;;;;;;;19.10;10.80;;;;;;;7.75;74.31;99339.16;79559;1298;3012940;-68
2023/12/30 10:08:17;;;;;;;16.30;8.90;;;;;;;7.96;73.64;99333.77;79591;1295;3012891;-72
2023/12/30 10:10:46;;;;;;;17.90;9.90;;;;;;;7.92;73.49;99333.79;78292;1294;3048604;-70
2023/12/30 10:13:14;;;;;;;19.10;10.00;;;;;;;7.77;73.99;99329.52;79430;1295;3012927;-72
2023/12/30 10:15:43;;;;;;;12.90;9.00;;;;;;;7.76;73.84;99326.59;79043;1295;3011543;-72
2023/12/30 10:18:10;;;;;;;12.70;8.30;;;;;;;7.70;74.00;99326.52;79615;1300;3015645;-69
2023/12/30 10:20:38;;;;;;;23.70;10.20;;;;;;;7.75;74.14;99325.59;79601;1298;3013119;-73
2023/12/30 10:23:07;;;;;;;15.40;9.10;;;;;;;7.83;74.20;99316.48;78365;1299;3051741;-72
2023/12/30 10:25:34;;;;;;;16.40;9.50;;;;;;;7.86;73.78;99316.48;79636;1298;3013866;-69
2023/12/30 10:28:01;;;;;;;17.20;8.00;;;;;;;7.81;73.49;99315.52;79544;1295;3011505;-68
2023/12/30 10:30:30;;;;;;;17.30;9.30;;;;;;;7.80;73.34;99311.39;78264;1300;3050174;-71
2023/12/30 10:33:07;;;;;;;14.00;8.10;;;;;;;7.73;73.44;99314.53;80429;1298;3014632;-72
2023/12/30 10:35:35;;;;;;;13.70;8.40;;;;;;;7.69;74.17;99312.48;80673;1298;3068081;-70
2023/12/30 10:38:03;;;;;;;17.50;9.10;;;;;;;7.80;74.13;99308.80;81742;1295;3018095;-71
2023/12/30 10:40:30;;;;;;;20.30;8.80;;;;;;;7.80;74.35;99303.54;80872;1297;3011530;-70
2023/12/30 10:43:00;;;;;;;12.70;8.20;;;;;;;7.93;74.04;99302.51;79784;1296;3054103;-70
2023/12/30 10:45:27;;;;;;;18.40;8.90;;;;;;;7.97;73.86;99297.41;81115;1295;3013367;-73
2023/12/30 10:47:56;;;;;;;15.60;9.00;;;;;;;7.91;74.22;99297.05;80418;1296;3011757;-71
2023/12/30 10:50:26;;;;;;;13.60;8.30;;;;;;;8.18;73.93;99288.30;78367;1298;3069194;-70
2023/12/30 10:53:02;;;;;;;18.90;9.00;;;;;;;8.29;73.31;99284.20;79432;1300;3015331;-70
2023/12/30 10:55:32;;;;;;;15.20;8.80;;;;;;;8.33;73.22;99283.67;78250;1298;3058392;-71
2023/12/30 10:58:04;;;;;;;18.00;9.00;;;;;;;8.26;73.58;99279.33;79565;1297;3013445;-72
2023/12/30 11:00:35;;;;;;;16.80;9.80;;;;;;;8.40;73.34;99277.89;78296;1298;3051657;-73
2023/12/30 11:03:05;;;;;;;17.10;9.20;;;;;;;8.45;73.56;99271.67;79489;1297;3011621;-72
2023/12/30 11:05:41;;;;;;;15.80;8.60;;;;;;;8.45;73.83;99269.92;78272;1299;3052266;-72
2023/12/30 11:08:09;;;;;;;16.20;8.90;;;;;;;8.60;73.22;99267.73;78402;1298;3053670;-70
2023/12/30 11:10:36;;;;;;;14.10;9.00;;;;;;;8.63;73.36;99267.73;79437;1300;3013974;-69
2023/12/30 11:13:05;;;;;;;15.40;8.30;;;;;;;8.67;72.97;99263.50;79404;1297;3011695;-70
2023/12/30 11:15:34;;;;;;;17.20;9.30;;;;;;;8.70;72.85;99260.16;78178;1298;3048514;-71